sensor_id;sensor_type;location;lat;lon;timestamp;P1;durP1;ratioP1;P2;durP2;ratioP2
73136;SDS011;62977;45.636;11.750;2023-02-11T00:00:12;70.68;;;32.33;;
73136;SDS011;62977;45.636;11.750;2023-02-11T00:02:39;69.85;;;31.70;;
73136;SDS011;62977;45.636;11.750;2023-02-11T00:05:05;68.13;;;31.00;;
73136;SDS011;62977;45.636;11.750;2023-02-11T00:07:31;65.53;;;30.55;;
73136;SDS011;62977;45.636;11.750;2023-02-11T00:09:58;67.97;;;31.80;;
73136;SDS011;62977;45.636;11.750;2023-02-11T00:12:24;65.60;;;30.70;;
73136;SDS011;62977;45.636;11.750;2023-02-11T00:14:50;73.07;;;31.45;;
73136;SDS011;62977;45.636;11.750;2023-02-11T00:17:16;92.28;;;37.47;;
73136;SDS011;62977;45.636;11.750;2023-02-11T00:19:41;72.73;;;34.40;;
73136;SDS011;62977;45.636;11.750;2023-02-11T00:22:07;81.00;;;32.60;;
73136;SDS011;62977;45.636;11.750;2023-02-11T00:24:34;72.65;;;33.53;;
73136;SDS011;62977;45.636;11.750;2023-02-11T00:27:00;84.78;;;35.17;;
73136;SDS011;62977;45.636;11.750;2023-02-11T00:29:26;70.10;;;33.53;;
73136;SDS011;62977;45.636;11.750;2023-02-11T00:31:52;71.22;;;34.30;;
73136;SDS011;62977;45.636;11.750;2023-02-11T00:34:17;65.93;;;30.30;;
73136;SDS011;62977;45.636;11.750;2023-02-11T00:36:43;70.68;;;29.88;;
73136;SDS011;62977;45.636;11.750;2023-02-11T00:39:09;65.07;;;30.07;;
73136;SDS011;62977;45.636;11.750;2023-02-11T00:41:35;62.13;;;30.17;;
73136;SDS011;62977;45.636;11.750;2023-02-11T00:44:01;66.63;;;31.40;;
73136;SDS011;62977;45.636;11.750;2023-02-11T00:46:27;65.22;;;30.10;;
73136;SDS011;62977;45.636;11.750;2023-02-11T00:48:53;59.72;;;28.00;;
73136;SDS011;62977;45.636;11.750;2023-02-11T00:51:21;56.65;;;27.60;;
73136;SDS011;62977;45.636;11.750;2023-02-11T00:53:48;68.37;;;31.33;;
73136;SDS011;62977;45.636;11.750;2023-02-11T00:56:14;82.90;;;33.20;;
73136;SDS011;62977;45.636;11.750;2023-02-11T00:58:39;66.27;;;30.67;;
73136;SDS011;62977;45.636;11.750;2023-02-11T01:01:05;63.70;;;30.25;;
73136;SDS011;62977;45.636;11.750;2023-02-11T01:03:31;58.63;;;27.08;;
73136;SDS011;62977;45.636;11.750;2023-02-11T01:08:42;61.15;;;28.60;;
73136;SDS011;62977;45.636;11.750;2023-02-11T01:11:12;61.42;;;28.33;;
73136;SDS011;62977;45.636;11.750;2023-02-11T01:13:39;60.75;;;28.42;;
73136;SDS011;62977;45.636;11.750;2023-02-11T01:16:06;52.73;;;24.33;;
73136;SDS011;62977;45.636;11.750;2023-02-11T01:18:32;59.33;;;28.35;;
73136;SDS011;62977;45.636;11.750;2023-02-11T01:21:17;65.85;;;29.00;;
73136;SDS011;62977;45.636;11.750;2023-02-11T01:23:43;53.33;;;26.70;;
73136;SDS011;62977;45.636;11.750;2023-02-11T01:26:09;59.08;;;27.38;;
73136;SDS011;62977;45.636;11.750;2023-02-11T01:28:34;56.55;;;27.55;;
73136;SDS011;62977;45.636;11.750;2023-02-11T01:31:00;63.17;;;27.03;;
73136;SDS011;62977;45.636;11.750;2023-02-11T01:33:26;54.13;;;26.45;;
73136;SDS011;62977;45.636;11.750;2023-02-11T01:35:52;55.47;;;26.00;;
73136;SDS011;62977;45.636;11.750;2023-02-11T01:38:19;61.65;;;26.10;;
73136;SDS011;62977;45.636;11.750;2023-02-11T01:40:51;55.10;;;26.80;;
73136;SDS011;62977;45.636;11.750;2023-02-11T01:43:19;59.15;;;27.23;;
73136;SDS011;62977;45.636;11.750;2023-02-11T01:48:12;56.67;;;25.53;;
73136;SDS011;62977;45.636;11.750;2023-02-11T01:50:41;53.10;;;25.52;;
73136;SDS011;62977;45.636;11.750;2023-02-11T01:53:08;55.92;;;26.48;;
73136;SDS011;62977;45.636;11.750;2023-02-11T01:56:00;52.40;;;24.47;;
73136;SDS011;62977;45.636;11.750;2023-02-11T01:58:46;51.22;;;24.52;;
73136;SDS011;62977;45.636;11.750;2023-02-11T02:01:15;50.25;;;25.10;;
73136;SDS011;62977;45.636;11.750;2023-02-11T02:03:44;47.28;;;22.88;;
73136;SDS011;62977;45.636;11.750;2023-02-11T02:06:15;50.45;;;24.02;;
73136;SDS011;62977;45.636;11.750;2023-02-11T02:08:49;49.33;;;23.43;;
73136;SDS011;62977;45.636;11.750;2023-02-11T02:11:21;53.97;;;24.60;;
73136;SDS011;62977;45.636;11.750;2023-02-11T02:13:47;52.70;;;24.27;;
73136;SDS011;62977;45.636;11.750;2023-02-11T02:16:14;51.33;;;24.40;;
73136;SDS011;62977;45.636;11.750;2023-02-11T02:41:16;53.85;;;24.27;;
73136;SDS011;62977;45.636;11.750;2023-02-11T02:43:47;51.40;;;24.00;;
73136;SDS011;62977;45.636;11.750;2023-02-11T02:46:21;52.40;;;23.63;;
73136;SDS011;62977;45.636;11.750;2023-02-11T02:48:55;50.17;;;23.83;;
73136;SDS011;62977;45.636;11.750;2023-02-11T02:56:43;53.38;;;23.48;;
73136;SDS011;62977;45.636;11.750;2023-02-11T03:04:22;51.67;;;22.20;;
73136;SDS011;62977;45.636;11.750;2023-02-11T03:07:11;54.83;;;25.00;;
73136;SDS011;62977;45.636;11.750;2023-02-11T03:09:51;47.60;;;22.83;;
73136;SDS011;62977;45.636;11.750;2023-02-11T03:12:25;47.08;;;22.73;;
73136;SDS011;62977;45.636;11.750;2023-02-11T03:14:54;51.37;;;24.17;;
73136;SDS011;62977;45.636;11.750;2023-02-11T03:17:20;51.00;;;22.70;;
73136;SDS011;62977;45.636;11.750;2023-02-11T03:19:49;48.08;;;24.17;;
73136;SDS011;62977;45.636;11.750;2023-02-11T03:22:25;42.23;;;20.03;;
73136;SDS011;62977;45.636;11.750;2023-02-11T03:24:56;50.25;;;22.15;;
73136;SDS011;62977;45.636;11.750;2023-02-11T03:32:37;45.30;;;21.73;;
73136;SDS011;62977;45.636;11.750;2023-02-11T03:35:23;44.35;;;21.55;;
73136;SDS011;62977;45.636;11.750;2023-02-11T03:38:04;47.58;;;22.02;;
73136;SDS011;62977;45.636;11.750;2023-02-11T03:40:45;42.60;;;21.85;;
73136;SDS011;62977;45.636;11.750;2023-02-11T03:45:45;47.20;;;22.23;;
73136;SDS011;62977;45.636;11.750;2023-02-11T03:48:21;48.38;;;22.60;;
73136;SDS011;62977;45.636;11.750;2023-02-11T03:51:08;44.97;;;22.95;;
73136;SDS011;62977;45.636;11.750;2023-02-11T03:53:37;50.55;;;22.02;;
73136;SDS011;62977;45.636;11.750;2023-02-11T03:56:05;44.85;;;22.45;;
73136;SDS011;62977;45.636;11.750;2023-02-11T03:58:34;44.43;;;20.90;;
73136;SDS011;62977;45.636;11.750;2023-02-11T04:01:00;43.65;;;21.90;;
73136;SDS011;62977;45.636;11.750;2023-02-11T04:03:26;48.42;;;21.38;;
73136;SDS011;62977;45.636;11.750;2023-02-11T04:05:52;46.13;;;21.83;;
73136;SDS011;62977;45.636;11.750;2023-02-11T04:08:18;67.45;;;29.20;;
73136;SDS011;62977;45.636;11.750;2023-02-11T04:10:44;55.75;;;32.80;;
73136;SDS011;62977;45.636;11.750;2023-02-11T04:13:09;46.10;;;21.53;;
73136;SDS011;62977;45.636;11.750;2023-02-11T04:15:35;53.63;;;25.60;;
73136;SDS011;62977;45.636;11.750;2023-02-11T04:18:01;53.37;;;28.07;;
73136;SDS011;62977;45.636;11.750;2023-02-11T04:20:27;59.33;;;26.55;;
73136;SDS011;62977;45.636;11.750;2023-02-11T04:22:53;43.65;;;19.98;;
73136;SDS011;62977;45.636;11.750;2023-02-11T04:25:19;40.60;;;20.17;;
73136;SDS011;62977;45.636;11.750;2023-02-11T04:27:45;40.95;;;18.20;;
73136;SDS011;62977;45.636;11.750;2023-02-11T04:30:10;38.47;;;18.33;;
73136;SDS011;62977;45.636;11.750;2023-02-11T04:32:36;43.78;;;20.67;;
73136;SDS011;62977;45.636;11.750;2023-02-11T04:35:02;41.13;;;19.80;;
73136;SDS011;62977;45.636;11.750;2023-02-11T04:37:28;43.30;;;20.65;;
73136;SDS011;62977;45.636;11.750;2023-02-11T04:39:54;43.28;;;18.27;;
73136;SDS011;62977;45.636;11.750;2023-02-11T04:42:19;39.53;;;18.80;;
73136;SDS011;62977;45.636;11.750;2023-02-11T04:44:45;52.97;;;22.27;;
73136;SDS011;62977;45.636;11.750;2023-02-11T04:47:11;41.53;;;20.17;;
73136;SDS011;62977;45.636;11.750;2023-02-11T04:49:37;87.25;;;31.48;;
73136;SDS011;62977;45.636;11.750;2023-02-11T04:52:03;61.60;;;23.90;;
73136;SDS011;62977;45.636;11.750;2023-02-11T04:54:29;74.15;;;28.15;;
73136;SDS011;62977;45.636;11.750;2023-02-11T04:56:54;133.85;;;37.95;;
73136;SDS011;62977;45.636;11.750;2023-02-11T04:59:20;123.87;;;40.77;;
73136;SDS011;62977;45.636;11.750;2023-02-11T05:01:46;103.07;;;35.83;;
73136;SDS011;62977;45.636;11.750;2023-02-11T05:04:11;83.70;;;29.63;;
73136;SDS011;62977;45.636;11.750;2023-02-11T05:06:38;177.97;;;48.97;;
73136;SDS011;62977;45.636;11.750;2023-02-11T05:09:04;160.27;;;46.72;;
73136;SDS011;62977;45.636;11.750;2023-02-11T05:11:29;100.03;;;32.20;;
73136;SDS011;62977;45.636;11.750;2023-02-11T05:13:55;108.33;;;35.90;;
73136;SDS011;62977;45.636;11.750;2023-02-11T05:16:20;84.93;;;30.43;;
73136;SDS011;62977;45.636;11.750;2023-02-11T05:18:46;70.68;;;26.73;;
73136;SDS011;62977;45.636;11.750;2023-02-11T05:21:13;59.90;;;22.73;;
73136;SDS011;62977;45.636;11.750;2023-02-11T05:23:40;52.78;;;19.98;;
73136;SDS011;62977;45.636;11.750;2023-02-11T05:26:06;60.42;;;23.40;;
73136;SDS011;62977;45.636;11.750;2023-02-11T05:28:32;72.90;;;24.95;;
73136;SDS011;62977;45.636;11.750;2023-02-11T05:30:59;68.13;;;24.35;;
73136;SDS011;62977;45.636;11.750;2023-02-11T05:33:25;55.37;;;23.00;;
73136;SDS011;62977;45.636;11.750;2023-02-11T05:35:51;48.25;;;20.83;;
73136;SDS011;62977;45.636;11.750;2023-02-11T05:38:16;62.97;;;22.57;;
73136;SDS011;62977;45.636;11.750;2023-02-11T05:40:42;48.92;;;21.33;;
73136;SDS011;62977;45.636;11.750;2023-02-11T05:43:08;46.97;;;20.92;;
73136;SDS011;62977;45.636;11.750;2023-02-11T05:45:34;42.43;;;19.60;;
73136;SDS011;62977;45.636;11.750;2023-02-11T05:47:59;45.77;;;19.57;;
73136;SDS011;62977;45.636;11.750;2023-02-11T05:50:25;51.15;;;20.65;;
73136;SDS011;62977;45.636;11.750;2023-02-11T05:52:51;45.17;;;20.47;;
73136;SDS011;62977;45.636;11.750;2023-02-11T05:55:16;39.42;;;18.85;;
73136;SDS011;62977;45.636;11.750;2023-02-11T05:57:42;45.97;;;20.57;;
73136;SDS011;62977;45.636;11.750;2023-02-11T06:00:08;36.42;;;18.48;;
73136;SDS011;62977;45.636;11.750;2023-02-11T06:02:34;43.50;;;18.77;;
73136;SDS011;62977;45.636;11.750;2023-02-11T06:05:00;43.83;;;19.53;;
73136;SDS011;62977;45.636;11.750;2023-02-11T06:07:25;44.97;;;19.47;;
73136;SDS011;62977;45.636;11.750;2023-02-11T06:09:51;44.17;;;19.47;;
73136;SDS011;62977;45.636;11.750;2023-02-11T06:12:16;46.63;;;19.77;;
73136;SDS011;62977;45.636;11.750;2023-02-11T06:14:43;43.58;;;20.95;;
73136;SDS011;62977;45.636;11.750;2023-02-11T06:17:08;44.05;;;19.60;;
73136;SDS011;62977;45.636;11.750;2023-02-11T06:19:34;41.67;;;19.00;;
73136;SDS011;62977;45.636;11.750;2023-02-11T06:22:00;43.03;;;20.13;;
73136;SDS011;62977;45.636;11.750;2023-02-11T06:24:25;42.10;;;19.87;;
73136;SDS011;62977;45.636;11.750;2023-02-11T06:26:51;46.95;;;19.83;;
73136;SDS011;62977;45.636;11.750;2023-02-11T06:29:17;42.40;;;19.57;;
73136;SDS011;62977;45.636;11.750;2023-02-11T06:31:42;44.60;;;20.10;;
73136;SDS011;62977;45.636;11.750;2023-02-11T06:34:08;50.37;;;23.23;;
73136;SDS011;62977;45.636;11.750;2023-02-11T06:36:34;50.00;;;24.05;;
73136;SDS011;62977;45.636;11.750;2023-02-11T06:39:02;47.70;;;22.60;;
73136;SDS011;62977;45.636;11.750;2023-02-11T06:41:28;48.55;;;23.20;;
73136;SDS011;62977;45.636;11.750;2023-02-11T06:43:53;48.75;;;23.58;;
73136;SDS011;62977;45.636;11.750;2023-02-11T06:46:19;47.33;;;22.00;;
73136;SDS011;62977;45.636;11.750;2023-02-11T06:48:45;52.88;;;24.63;;
73136;SDS011;62977;45.636;11.750;2023-02-11T06:51:11;46.30;;;22.73;;
73136;SDS011;62977;45.636;11.750;2023-02-11T06:53:38;53.67;;;21.63;;
73136;SDS011;62977;45.636;11.750;2023-02-11T06:56:07;46.20;;;23.15;;
73136;SDS011;62977;45.636;11.750;2023-02-11T06:58:35;43.23;;;21.13;;
73136;SDS011;62977;45.636;11.750;2023-02-11T07:01:05;43.20;;;19.05;;
73136;SDS011;62977;45.636;11.750;2023-02-11T07:03:36;40.75;;;19.27;;
73136;SDS011;62977;45.636;11.750;2023-02-11T07:06:03;43.97;;;20.33;;
73136;SDS011;62977;45.636;11.750;2023-02-11T07:08:33;37.83;;;15.93;;
73136;SDS011;62977;45.636;11.750;2023-02-11T07:11:00;37.93;;;15.10;;
73136;SDS011;62977;45.636;11.750;2023-02-11T07:13:26;41.97;;;18.33;;
73136;SDS011;62977;45.636;11.750;2023-02-11T07:15:51;43.60;;;18.27;;
73136;SDS011;62977;45.636;11.750;2023-02-11T07:18:17;41.30;;;20.02;;
73136;SDS011;62977;45.636;11.750;2023-02-11T07:20:43;41.33;;;20.40;;
73136;SDS011;62977;45.636;11.750;2023-02-11T07:23:08;46.47;;;21.25;;
73136;SDS011;62977;45.636;11.750;2023-02-11T07:25:34;42.42;;;22.45;;
73136;SDS011;62977;45.636;11.750;2023-02-11T07:28:00;45.27;;;21.93;;
73136;SDS011;62977;45.636;11.750;2023-02-11T07:30:27;43.60;;;22.63;;
73136;SDS011;62977;45.636;11.750;2023-02-11T07:32:52;50.93;;;24.67;;
73136;SDS011;62977;45.636;11.750;2023-02-11T07:35:18;45.80;;;23.42;;
73136;SDS011;62977;45.636;11.750;2023-02-11T07:37:43;59.83;;;25.77;;
73136;SDS011;62977;45.636;11.750;2023-02-11T07:40:09;68.18;;;27.40;;
73136;SDS011;62977;45.636;11.750;2023-02-11T07:42:35;52.93;;;25.07;;
73136;SDS011;62977;45.636;11.750;2023-02-11T07:45:01;50.60;;;24.75;;
73136;SDS011;62977;45.636;11.750;2023-02-11T07:47:27;53.45;;;24.67;;
73136;SDS011;62977;45.636;11.750;2023-02-11T07:49:52;63.43;;;26.90;;
73136;SDS011;62977;45.636;11.750;2023-02-11T07:52:18;60.13;;;25.85;;
73136;SDS011;62977;45.636;11.750;2023-02-11T07:54:44;53.10;;;23.90;;
73136;SDS011;62977;45.636;11.750;2023-02-11T07:57:10;37.95;;;17.52;;
73136;SDS011;62977;45.636;11.750;2023-02-11T07:59:35;36.37;;;18.13;;
73136;SDS011;62977;45.636;11.750;2023-02-11T08:02:01;38.55;;;17.92;;
73136;SDS011;62977;45.636;11.750;2023-02-11T08:04:27;33.40;;;16.77;;
73136;SDS011;62977;45.636;11.750;2023-02-11T08:06:53;37.17;;;16.30;;
73136;SDS011;62977;45.636;11.750;2023-02-11T08:09:21;30.95;;;15.68;;
73136;SDS011;62977;45.636;11.750;2023-02-11T08:11:47;37.08;;;15.55;;
73136;SDS011;62977;45.636;11.750;2023-02-11T08:14:13;30.88;;;15.05;;
73136;SDS011;62977;45.636;11.750;2023-02-11T08:16:39;34.80;;;16.10;;
73136;SDS011;62977;45.636;11.750;2023-02-11T08:19:06;36.95;;;16.10;;
73136;SDS011;62977;45.636;11.750;2023-02-11T08:21:35;28.83;;;14.95;;
73136;SDS011;62977;45.636;11.750;2023-02-11T08:24:01;26.50;;;13.40;;
73136;SDS011;62977;45.636;11.750;2023-02-11T08:26:28;25.08;;;12.82;;
73136;SDS011;62977;45.636;11.750;2023-02-11T08:28:56;26.40;;;13.32;;
73136;SDS011;62977;45.636;11.750;2023-02-11T08:31:23;28.75;;;12.20;;
73136;SDS011;62977;45.636;11.750;2023-02-11T08:33:51;29.97;;;13.57;;
73136;SDS011;62977;45.636;11.750;2023-02-11T08:36:19;27.38;;;13.40;;
73136;SDS011;62977;45.636;11.750;2023-02-11T08:38:47;27.83;;;14.05;;
73136;SDS011;62977;45.636;11.750;2023-02-11T08:41:13;27.58;;;15.13;;
73136;SDS011;62977;45.636;11.750;2023-02-11T08:43:40;31.88;;;16.52;;
73136;SDS011;62977;45.636;11.750;2023-02-11T08:46:07;50.60;;;16.50;;
73136;SDS011;62977;45.636;11.750;2023-02-11T08:48:34;39.13;;;17.55;;
73136;SDS011;62977;45.636;11.750;2023-02-11T08:51:04;32.28;;;17.55;;
73136;SDS011;62977;45.636;11.750;2023-02-11T08:53:31;38.75;;;16.95;;
73136;SDS011;62977;45.636;11.750;2023-02-11T08:55:56;38.20;;;18.23;;
73136;SDS011;62977;45.636;11.750;2023-02-11T08:58:22;33.75;;;17.40;;
73136;SDS011;62977;45.636;11.750;2023-02-11T09:00:48;29.80;;;15.07;;
73136;SDS011;62977;45.636;11.750;2023-02-11T09:03:14;27.80;;;15.00;;
73136;SDS011;62977;45.636;11.750;2023-02-11T09:05:43;29.85;;;15.32;;
73136;SDS011;62977;45.636;11.750;2023-02-11T09:08:10;30.27;;;15.13;;
73136;SDS011;62977;45.636;11.750;2023-02-11T09:10:36;33.13;;;15.95;;
73136;SDS011;62977;45.636;11.750;2023-02-11T09:13:02;32.40;;;16.10;;
73136;SDS011;62977;45.636;11.750;2023-02-11T09:15:28;31.53;;;15.73;;
73136;SDS011;62977;45.636;11.750;2023-02-11T09:17:55;33.88;;;16.10;;
73136;SDS011;62977;45.636;11.750;2023-02-11T09:20:21;29.60;;;16.13;;
73136;SDS011;62977;45.636;11.750;2023-02-11T09:22:47;27.85;;;14.60;;
73136;SDS011;62977;45.636;11.750;2023-02-11T09:25:12;32.30;;;14.50;;
73136;SDS011;62977;45.636;11.750;2023-02-11T09:27:38;31.13;;;14.15;;
73136;SDS011;62977;45.636;11.750;2023-02-11T09:30:04;27.97;;;14.57;;
73136;SDS011;62977;45.636;11.750;2023-02-11T09:32:30;26.88;;;15.15;;
73136;SDS011;62977;45.636;11.750;2023-02-11T09:34:55;33.47;;;15.67;;
73136;SDS011;62977;45.636;11.750;2023-02-11T09:37:21;27.10;;;13.20;;
73136;SDS011;62977;45.636;11.750;2023-02-11T09:39:47;29.13;;;14.47;;
73136;SDS011;62977;45.636;11.750;2023-02-11T09:42:23;27.65;;;14.20;;
73136;SDS011;62977;45.636;11.750;2023-02-11T09:45:05;24.83;;;12.63;;
73136;SDS011;62977;45.636;11.750;2023-02-11T09:48:03;22.80;;;11.10;;
73136;SDS011;62977;45.636;11.750;2023-02-11T09:50:41;26.55;;;12.80;;
73136;SDS011;62977;45.636;11.750;2023-02-11T09:53:23;25.08;;;12.07;;
73136;SDS011;62977;45.636;11.750;2023-02-11T09:55:56;25.88;;;11.73;;
73136;SDS011;62977;45.636;11.750;2023-02-11T10:06:35;23.63;;;11.48;;
73136;SDS011;62977;45.636;11.750;2023-02-11T10:12:58;25.00;;;13.23;;
73136;SDS011;62977;45.636;11.750;2023-02-11T10:20:28;20.67;;;10.60;;
73136;SDS011;62977;45.636;11.750;2023-02-11T10:23:00;22.85;;;10.80;;
73136;SDS011;62977;45.636;11.750;2023-02-11T10:25:33;23.63;;;11.38;;
73136;SDS011;62977;45.636;11.750;2023-02-11T10:28:48;21.67;;;10.87;;
73136;SDS011;62977;45.636;11.750;2023-02-11T10:31:12;23.30;;;10.63;;
73136;SDS011;62977;45.636;11.750;2023-02-11T10:34:06;27.73;;;11.32;;
73136;SDS011;62977;45.636;11.750;2023-02-11T10:36:36;21.95;;;11.15;;
73136;SDS011;62977;45.636;11.750;2023-02-11T10:39:18;23.95;;;11.98;;
73136;SDS011;62977;45.636;11.750;2023-02-11T10:44:40;26.67;;;13.30;;
73136;SDS011;62977;45.636;11.750;2023-02-11T10:47:21;25.20;;;12.75;;
73136;SDS011;62977;45.636;11.750;2023-02-11T10:49:49;27.75;;;14.55;;
73136;SDS011;62977;45.636;11.750;2023-02-11T10:52:17;29.47;;;15.33;;
73136;SDS011;62977;45.636;11.750;2023-02-11T10:55:03;30.23;;;15.80;;
73136;SDS011;62977;45.636;11.750;2023-02-11T10:57:57;40.88;;;18.88;;
73136;SDS011;62977;45.636;11.750;2023-02-11T11:00:33;41.80;;;20.00;;
73136;SDS011;62977;45.636;11.750;2023-02-11T11:03:02;40.67;;;21.63;;
73136;SDS011;62977;45.636;11.750;2023-02-11T11:05:32;45.85;;;22.17;;
73136;SDS011;62977;45.636;11.750;2023-02-11T11:08:09;41.92;;;21.90;;
73136;SDS011;62977;45.636;11.750;2023-02-11T11:15:51;38.40;;;21.10;;
73136;SDS011;62977;45.636;11.750;2023-02-11T11:18:30;45.35;;;22.27;;
73136;SDS011;62977;45.636;11.750;2023-02-11T11:20:57;34.75;;;18.98;;
73136;SDS011;62977;45.636;11.750;2023-02-11T11:23:24;34.83;;;19.57;;
73136;SDS011;62977;45.636;11.750;2023-02-11T11:26:25;34.38;;;18.85;;
73136;SDS011;62977;45.636;11.750;2023-02-11T11:31:34;31.88;;;18.00;;
73136;SDS011;62977;45.636;11.750;2023-02-11T11:36:55;29.83;;;18.77;;
73136;SDS011;62977;45.636;11.750;2023-02-11T11:39:27;39.83;;;17.45;;
73136;SDS011;62977;45.636;11.750;2023-02-11T11:41:56;32.47;;;17.35;;
73136;SDS011;62977;45.636;11.750;2023-02-11T11:44:34;31.55;;;17.92;;
73136;SDS011;62977;45.636;11.750;2023-02-11T11:49:36;31.97;;;18.30;;
73136;SDS011;62977;45.636;11.750;2023-02-11T11:52:19;34.40;;;18.88;;
73136;SDS011;62977;45.636;11.750;2023-02-11T11:57:46;34.67;;;18.50;;
73136;SDS011;62977;45.636;11.750;2023-02-11T12:00:58;29.65;;;17.42;;
73136;SDS011;62977;45.636;11.750;2023-02-11T12:17:43;17.33;;;10.47;;
73136;SDS011;62977;45.636;11.750;2023-02-11T12:39:51;16.83;;;10.93;;
73136;SDS011;62977;45.636;11.750;2023-02-11T12:59:03;18.63;;;10.87;;
73136;SDS011;62977;45.636;11.750;2023-02-11T13:01:35;18.75;;;11.20;;
73136;SDS011;62977;45.636;11.750;2023-02-11T13:04:39;17.48;;;10.82;;
73136;SDS011;62977;45.636;11.750;2023-02-11T13:07:08;22.67;;;13.75;;
73136;SDS011;67767;45.636;11.756;2023-02-11T13:09:40;21.75;;;11.75;;
73136;SDS011;67767;45.636;11.756;2023-02-11T13:12:12;21.70;;;11.67;;
73136;SDS011;67767;45.636;11.756;2023-02-11T13:14:59;19.08;;;11.93;;
73136;SDS011;67767;45.636;11.756;2023-02-11T13:17:31;19.08;;;11.15;;
73136;SDS011;67767;45.636;11.756;2023-02-11T13:20:19;20.17;;;11.82;;
73136;SDS011;67767;45.636;11.756;2023-02-11T13:25:49;17.90;;;10.90;;
73136;SDS011;67767;45.636;11.756;2023-02-11T13:28:27;17.75;;;11.05;;
73136;SDS011;67767;45.636;11.756;2023-02-11T13:30:56;20.92;;;12.98;;
73136;SDS011;67767;45.636;11.756;2023-02-11T13:33:34;19.27;;;13.52;;
73136;SDS011;67767;45.636;11.756;2023-02-11T13:38:27;18.50;;;12.93;;
73136;SDS011;67767;45.636;11.756;2023-02-11T13:41:17;23.70;;;12.45;;
73136;SDS011;67767;45.636;11.756;2023-02-11T13:43:45;19.05;;;11.27;;
73136;SDS011;67767;45.636;11.756;2023-02-11T13:46:26;25.40;;;20.95;;
73136;SDS011;67767;45.636;11.756;2023-02-11T13:49:04;23.10;;;14.83;;
73136;SDS011;67767;45.636;11.756;2023-02-11T13:51:36;66.25;;;18.40;;
73136;SDS011;67767;45.636;11.756;2023-02-11T13:54:06;25.15;;;15.00;;
73136;SDS011;67767;45.636;11.756;2023-02-11T13:56:37;23.07;;;15.17;;
73136;SDS011;67767;45.636;11.756;2023-02-11T13:59:51;24.05;;;15.40;;
73136;SDS011;67767;45.636;11.756;2023-02-11T14:02:02;21.77;;;14.60;;
73136;SDS011;67767;45.636;11.756;2023-02-11T14:13:25;20.40;;;13.63;;
73136;SDS011;67767;45.636;11.756;2023-02-11T14:16:02;22.73;;;14.50;;
73136;SDS011;67767;45.636;11.756;2023-02-11T14:43:30;26.70;;;17.10;;
73136;SDS011;67767;45.636;11.756;2023-02-11T14:46:01;32.20;;;17.20;;
73136;SDS011;67767;45.636;11.756;2023-02-11T14:48:29;29.50;;;17.00;;
73136;SDS011;67767;45.636;11.756;2023-02-11T14:51:02;26.80;;;16.13;;
73136;SDS011;67767;45.636;11.756;2023-02-11T14:53:42;24.80;;;15.85;;
73136;SDS011;67767;45.636;11.756;2023-02-11T14:56:19;27.27;;;16.05;;
73136;SDS011;67767;45.636;11.756;2023-02-11T14:58:47;28.23;;;16.85;;
73136;SDS011;67767;45.636;11.756;2023-02-11T15:01:34;27.80;;;16.23;;
73136;SDS011;67767;45.636;11.756;2023-02-11T15:04:05;25.65;;;15.35;;
73136;SDS011;67767;45.636;11.756;2023-02-11T15:06:47;28.42;;;15.90;;
73136;SDS011;67767;45.636;11.756;2023-02-11T15:09:18;26.70;;;16.35;;
73136;SDS011;67767;45.636;11.756;2023-02-11T15:11:52;27.80;;;15.75;;
73136;SDS011;67767;45.636;11.756;2023-02-11T15:14:22;26.77;;;16.03;;
73136;SDS011;67767;45.636;11.756;2023-02-11T15:16:48;27.17;;;15.93;;
73136;SDS011;67767;45.636;11.756;2023-02-11T15:19:24;33.75;;;17.83;;
73136;SDS011;67767;45.636;11.756;2023-02-11T15:21:56;34.05;;;16.92;;
73136;SDS011;67767;45.636;11.756;2023-02-11T15:24:24;34.08;;;19.77;;
73136;SDS011;67767;45.636;11.756;2023-02-11T15:29:27;32.58;;;18.30;;
73136;SDS011;67767;45.636;11.756;2023-02-11T15:32:21;34.42;;;18.55;;
73136;SDS011;67767;45.636;11.756;2023-02-11T15:34:49;36.28;;;18.33;;
73136;SDS011;67767;45.636;11.756;2023-02-11T15:37:20;31.00;;;18.50;;
73136;SDS011;67767;45.636;11.756;2023-02-11T15:39:47;34.73;;;19.37;;
73136;SDS011;67767;45.636;11.756;2023-02-11T15:47:36;37.72;;;21.77;;
73136;SDS011;67767;45.636;11.756;2023-02-11T15:50:03;40.40;;;21.27;;
73136;SDS011;67767;45.636;11.756;2023-02-11T15:52:29;39.83;;;21.03;;
73136;SDS011;67767;45.636;11.756;2023-02-11T15:54:57;37.00;;;21.02;;
73136;SDS011;67767;45.636;11.756;2023-02-11T15:57:25;37.42;;;21.50;;
73136;SDS011;67767;45.636;11.756;2023-02-11T15:59:52;40.33;;;21.27;;
73136;SDS011;67767;45.636;11.756;2023-02-11T16:02:30;38.83;;;21.88;;
73136;SDS011;67767;45.636;11.756;2023-02-11T16:04:59;41.10;;;21.80;;
73136;SDS011;67767;45.636;11.756;2023-02-11T16:07:43;42.55;;;22.05;;
73136;SDS011;67767;45.636;11.756;2023-02-11T16:10:30;40.72;;;22.20;;
73136;SDS011;67767;45.636;11.756;2023-02-11T16:15:49;49.00;;;25.20;;
73136;SDS011;67767;45.636;11.756;2023-02-11T16:18:28;55.60;;;27.40;;
73136;SDS011;67767;45.636;11.756;2023-02-11T16:20:59;50.88;;;28.05;;
73136;SDS011;67767;45.636;11.756;2023-02-11T16:23:27;60.47;;;32.53;;
73136;SDS011;67767;45.636;11.756;2023-02-11T16:26:00;65.50;;;34.53;;
73136;SDS011;67767;45.636;11.756;2023-02-11T16:28:33;57.60;;;29.80;;
73136;SDS011;67767;45.636;11.756;2023-02-11T16:31:00;54.70;;;29.80;;
73136;SDS011;67767;45.636;11.756;2023-02-11T16:33:27;51.33;;;28.33;;
73136;SDS011;67767;45.636;11.756;2023-02-11T16:35:53;51.80;;;28.30;;
73136;SDS011;67767;45.636;11.756;2023-02-11T16:38:18;56.30;;;28.23;;
73136;SDS011;67767;45.636;11.756;2023-02-11T16:40:44;56.03;;;28.40;;
73136;SDS011;67767;45.636;11.756;2023-02-11T16:43:13;58.13;;;30.80;;
73136;SDS011;67767;45.636;11.756;2023-02-11T16:45:41;58.60;;;30.30;;
73136;SDS011;67767;45.636;11.756;2023-02-11T16:48:08;58.20;;;29.90;;
73136;SDS011;67767;45.636;11.756;2023-02-11T16:50:37;59.20;;;30.17;;
73136;SDS011;67767;45.636;11.756;2023-02-11T16:53:10;52.05;;;27.30;;
73136;SDS011;67767;45.636;11.756;2023-02-11T16:55:37;53.45;;;28.10;;
73136;SDS011;67767;45.636;11.756;2023-02-11T16:58:03;52.53;;;27.40;;
73136;SDS011;67767;45.636;11.756;2023-02-11T17:00:28;50.45;;;27.65;;
73136;SDS011;67767;45.636;11.756;2023-02-11T17:02:54;59.20;;;28.70;;
73136;SDS011;67767;45.636;11.756;2023-02-11T17:05:20;56.47;;;28.23;;
73136;SDS011;67767;45.636;11.756;2023-02-11T17:07:49;53.10;;;27.10;;
73136;SDS011;67767;45.636;11.756;2023-02-11T17:10:15;58.75;;;29.20;;
73136;SDS011;67767;45.636;11.756;2023-02-11T17:12:46;50.70;;;26.57;;
73136;SDS011;67767;45.636;11.756;2023-02-11T17:15:12;62.67;;;28.30;;
73136;SDS011;67767;45.636;11.756;2023-02-11T17:17:38;64.32;;;30.00;;
73136;SDS011;67767;45.636;11.756;2023-02-11T17:20:04;62.03;;;30.23;;
73136;SDS011;67767;45.636;11.756;2023-02-11T17:22:30;62.90;;;32.78;;
73136;SDS011;67767;45.636;11.756;2023-02-11T17:24:56;64.20;;;31.25;;